sensor_id;sensor_type;location;lat;lon;timestamp;P1;durP1;ratioP1;P2;durP2;ratioP2
71753;SDS011;59593;51.716;7.016;2023-07-31T00:01:30;2.03;;;1.63;;
71753;SDS011;59593;51.716;7.016;2023-07-31T09:52:38;6.70;;;5.18;;
71753;SDS011;59593;51.716;7.016;2023-07-31T09:58:30;4.53;;;4.00;;
71753;SDS011;59593;51.716;7.016;2023-07-31T10:10:27;4.90;;;4.18;;
71753;SDS011;59593;51.716;7.016;2023-07-31T10:16:43;5.72;;;4.03;;
71753;SDS011;59593;51.716;7.016;2023-07-31T10:22:00;4.65;;;3.40;;
71753;SDS011;59593;51.716;7.016;2023-07-31T10:24:49;5.28;;;3.85;;
71753;SDS011;59593;51.716;7.016;2023-07-31T10:27:32;5.55;;;3.63;;
71753;SDS011;59593;51.716;7.016;2023-07-31T10:30:02;5.38;;;3.50;;
71753;SDS011;59593;51.716;7.016;2023-07-31T10:32:30;4.47;;;3.30;;
71753;SDS011;59593;51.716;7.016;2023-07-31T10:34:57;5.85;;;3.28;;
71753;SDS011;59593;51.716;7.016;2023-07-31T10:38:14;5.80;;;3.38;;
71753;SDS011;59593;51.716;7.016;2023-07-31T10:40:40;4.53;;;3.28;;
71753;SDS011;59593;51.716;7.016;2023-07-31T11:18:51;6.20;;;4.60;;
71753;SDS011;59593;51.716;7.016;2023-07-31T11:29:27;6.70;;;4.20;;
71753;SDS011;59593;51.716;7.016;2023-07-31T11:34:53;7.40;;;4.30;;
71753;SDS011;59593;51.716;7.016;2023-07-31T11:40:16;5.55;;;3.78;;
71753;SDS011;59593;51.716;7.016;2023-07-31T12:14:32;4.95;;;3.40;;
71753;SDS011;59593;51.716;7.016;2023-07-31T12:23:28;4.72;;;3.13;;
71753;SDS011;59593;51.716;7.016;2023-07-31T12:26:35;5.15;;;3.65;;
71753;SDS011;59593;51.716;7.016;2023-07-31T12:36:21;5.95;;;3.03;;
71753;SDS011;59593;51.716;7.016;2023-07-31T12:39:14;4.07;;;3.10;;
71753;SDS011;59593;51.716;7.016;2023-07-31T12:42:20;5.85;;;3.10;;
71753;SDS011;59593;51.716;7.016;2023-07-31T12:58:59;4.43;;;3.30;;
71753;SDS011;59593;51.716;7.016;2023-07-31T13:10:02;5.13;;;3.22;;
71753;SDS011;59593;51.716;7.016;2023-07-31T13:22:51;4.80;;;2.75;;
71753;SDS011;59593;51.716;7.016;2023-07-31T13:25:52;4.05;;;3.10;;
71753;SDS011;59593;51.716;7.016;2023-07-31T13:28:26;5.45;;;3.15;;
71753;SDS011;59593;51.716;7.016;2023-07-31T13:34:10;5.35;;;3.75;;
71753;SDS011;59593;51.716;7.016;2023-07-31T16:36:29;9.98;;;6.45;;
71753;SDS011;59593;51.716;7.016;2023-07-31T16:39:09;9.27;;;6.35;;
71753;SDS011;59593;51.716;7.016;2023-07-31T16:41:56;8.23;;;6.10;;
71753;SDS011;59593;51.716;7.016;2023-07-31T16:48:30;12.27;;;6.20;;
71753;SDS011;59593;51.716;7.016;2023-07-31T16:51:28;7.90;;;5.47;;
71753;SDS011;59593;51.716;7.016;2023-07-31T16:54:07;10.88;;;6.28;;
71753;SDS011;59593;51.716;7.016;2023-07-31T16:56:48;8.55;;;5.80;;
71753;SDS011;59593;51.716;7.016;2023-07-31T16:59:25;6.78;;;5.68;;
71753;SDS011;59593;51.716;7.016;2023-07-31T17:02:00;8.68;;;5.70;;
71753;SDS011;59593;51.716;7.016;2023-07-31T17:04:50;8.50;;;6.20;;
71753;SDS011;59593;51.716;7.016;2023-07-31T17:07:25;7.57;;;5.85;;
71753;SDS011;59593;51.716;7.016;2023-07-31T17:13:54;9.40;;;5.53;;
71753;SDS011;59593;51.716;7.016;2023-07-31T17:16:49;8.32;;;5.53;;
71753;SDS011;59593;51.716;7.016;2023-07-31T17:19:59;8.15;;;4.93;;
71753;SDS011;59593;51.716;7.016;2023-07-31T17:31:37;9.02;;;4.75;;
71753;SDS011;59593;51.716;7.016;2023-07-31T17:34:06;11.82;;;4.68;;
71753;SDS011;59593;51.716;7.016;2023-07-31T17:36:32;8.35;;;4.97;;
71753;SDS011;59593;51.716;7.016;2023-07-31T17:39:06;8.20;;;5.05;;
71753;SDS011;59593;51.716;7.016;2023-07-31T17:41:54;5.00;;;4.35;;
71753;SDS011;59593;51.716;7.016;2023-07-31T17:47:37;6.95;;;4.38;;
71753;SDS011;59593;51.716;7.016;2023-07-31T17:50:05;6.25;;;4.40;;
71753;SDS011;59593;51.716;7.016;2023-07-31T17:52:32;6.05;;;4.28;;
71753;SDS011;59593;51.716;7.016;2023-07-31T17:55:01;7.85;;;4.60;;
71753;SDS011;59593;51.716;7.016;2023-07-31T17:57:48;6.38;;;4.25;;
71753;SDS011;59593;51.716;7.016;2023-07-31T18:00:14;4.60;;;3.85;;
71753;SDS011;59593;51.716;7.016;2023-07-31T18:02:58;6.15;;;4.03;;
71753;SDS011;59593;51.716;7.016;2023-07-31T18:29:17;3.90;;;3.17;;
71753;SDS011;59593;51.716;7.016;2023-07-31T18:42:05;4.47;;;3.28;;
71753;SDS011;59593;51.716;7.016;2023-07-31T18:44:31;5.88;;;3.13;;
71753;SDS011;59593;51.716;7.016;2023-07-31T18:46:56;5.57;;;3.10;;
71753;SDS011;59593;51.716;7.016;2023-07-31T18:49:25;4.43;;;3.05;;
71753;SDS011;59593;51.716;7.016;2023-07-31T18:51:51;4.50;;;2.92;;
71753;SDS011;59593;51.716;7.016;2023-07-31T18:54:19;4.22;;;2.95;;
71753;SDS011;59593;51.716;7.016;2023-07-31T18:56:45;7.47;;;3.03;;
71753;SDS011;59593;51.716;7.016;2023-07-31T18:59:12;4.90;;;2.85;;
71753;SDS011;59593;51.716;7.016;2023-07-31T19:01:48;4.82;;;2.97;;
71753;SDS011;59593;51.716;7.016;2023-07-31T19:04:16;4.43;;;3.03;;
71753;SDS011;59593;51.716;7.016;2023-07-31T19:06:44;4.15;;;2.90;;
71753;SDS011;59593;51.716;7.016;2023-07-31T19:09:11;5.57;;;3.53;;
71753;SDS011;59593;51.716;7.016;2023-07-31T19:11:39;4.18;;;3.17;;
71753;SDS011;59593;51.716;7.016;2023-07-31T19:14:09;5.65;;;3.40;;
71753;SDS011;59593;51.716;7.016;2023-07-31T19:16:37;3.75;;;3.22;;
71753;SDS011;59593;51.716;7.016;2023-07-31T19:19:09;5.93;;;3.58;;
71753;SDS011;59593;51.716;7.016;2023-07-31T19:21:40;5.75;;;3.88;;
71753;SDS011;59593;51.716;7.016;2023-07-31T19:24:05;5.78;;;3.75;;
71753;SDS011;59593;51.716;7.016;2023-07-31T19:26:36;4.93;;;3.75;;
71753;SDS011;59593;51.716;7.016;2023-07-31T19:29:05;4.50;;;3.83;;
71753;SDS011;59593;51.716;7.016;2023-07-31T19:31:31;4.05;;;3.63;;
71753;SDS011;59593;51.716;7.016;2023-07-31T19:33:57;5.03;;;3.80;;
71753;SDS011;59593;51.716;7.016;2023-07-31T19:36:24;3.80;;;3.40;;
71753;SDS011;59593;51.716;7.016;2023-07-31T19:38:49;4.85;;;3.50;;
71753;SDS011;59593;51.716;7.016;2023-07-31T19:41:15;4.45;;;3.00;;
71753;SDS011;59593;51.716;7.016;2023-07-31T19:43:46;2.72;;;2.45;;
71753;SDS011;59593;51.716;7.016;2023-07-31T19:46:21;3.30;;;2.80;;
71753;SDS011;59593;51.716;7.016;2023-07-31T19:48:54;2.80;;;2.28;;
71753;SDS011;59593;51.716;7.016;2023-07-31T19:51:22;4.20;;;2.38;;
71753;SDS011;59593;51.716;7.016;2023-07-31T19:53:51;3.75;;;2.22;;
71753;SDS011;59593;51.716;7.016;2023-07-31T19:56:23;3.45;;;2.28;;
71753;SDS011;59593;51.716;7.016;2023-07-31T19:58:51;3.03;;;2.40;;
71753;SDS011;59593;51.716;7.016;2023-07-31T20:01:31;4.13;;;2.53;;
71753;SDS011;59593;51.716;7.016;2023-07-31T20:03:57;5.15;;;2.75;;
71753;SDS011;59593;51.716;7.016;2023-07-31T20:06:29;3.67;;;2.83;;
71753;SDS011;59593;51.716;7.016;2023-07-31T20:08:54;3.75;;;3.22;;
71753;SDS011;59593;51.716;7.016;2023-07-31T20:11:20;5.75;;;3.60;;
71753;SDS011;59593;51.716;7.016;2023-07-31T20:14:04;6.45;;;3.65;;
71753;SDS011;59593;51.716;7.016;2023-07-31T20:16:32;4.30;;;3.90;;
71753;SDS011;59593;51.716;7.016;2023-07-31T20:19:00;5.05;;;4.50;;
71753;SDS011;59593;51.716;7.016;2023-07-31T20:21:26;4.88;;;4.47;;
71753;SDS011;59593;51.716;7.016;2023-07-31T20:24:08;5.53;;;4.40;;
71753;SDS011;59593;51.716;7.016;2023-07-31T20:26:37;6.03;;;4.40;;
71753;SDS011;59593;51.716;7.016;2023-07-31T20:29:03;5.07;;;4.53;;
71753;SDS011;59593;51.716;7.016;2023-07-31T20:31:29;6.13;;;4.68;;
71753;SDS011;59593;51.716;7.016;2023-07-31T20:34:05;5.95;;;4.43;;
71753;SDS011;59593;51.716;7.016;2023-07-31T20:36:42;5.22;;;4.50;;
71753;SDS011;59593;51.716;7.016;2023-07-31T20:39:08;7.35;;;4.60;;
71753;SDS011;59593;51.716;7.016;2023-07-31T20:41:44;4.70;;;4.20;;
71753;SDS011;59593;51.716;7.016;2023-07-31T20:44:17;7.30;;;3.38;;
71753;SDS011;59593;51.716;7.016;2023-07-31T20:46:44;1.83;;;0.98;;
71753;SDS011;59593;51.716;7.016;2023-07-31T20:49:17;0.90;;;0.90;;
71753;SDS011;59593;51.716;7.016;2023-07-31T20:51:43;1.75;;;0.98;;
71753;SDS011;59593;51.716;7.016;2023-07-31T20:54:09;2.38;;;1.05;;
71753;SDS011;59593;51.716;7.016;2023-07-31T20:56:38;2.45;;;1.00;;
71753;SDS011;59593;51.716;7.016;2023-07-31T20:59:14;1.67;;;1.20;;
71753;SDS011;59593;51.716;7.016;2023-07-31T21:01:43;2.15;;;1.00;;
71753;SDS011;59593;51.716;7.016;2023-07-31T21:09:22;1.40;;;1.20;;
71753;SDS011;59593;51.716;7.016;2023-07-31T21:11:48;1.30;;;1.20;;
71753;SDS011;59593;51.716;7.016;2023-07-31T21:14:14;1.30;;;1.20;;
71753;SDS011;59593;51.716;7.016;2023-07-31T21:16:44;1.98;;;1.10;;
71753;SDS011;59593;51.716;7.016;2023-07-31T21:19:09;1.95;;;1.20;;
71753;SDS011;59593;51.716;7.016;2023-07-31T21:21:39;1.10;;;1.00;;
71753;SDS011;59593;51.716;7.016;2023-07-31T21:24:04;1.20;;;1.10;;
71753;SDS011;59593;51.716;7.016;2023-07-31T21:26:30;1.75;;;1.20;;
71753;SDS011;59593;51.716;7.016;2023-07-31T21:28:56;1.33;;;1.13;;
71753;SDS011;59593;51.716;7.016;2023-07-31T21:31:21;1.40;;;1.00;;
71753;SDS011;59593;51.716;7.016;2023-07-31T21:33:47;1.90;;;1.10;;
71753;SDS011;59593;51.716;7.016;2023-07-31T21:36:16;1.20;;;1.10;;
71753;SDS011;59593;51.716;7.016;2023-07-31T21:38:46;1.58;;;1.10;;
71753;SDS011;59593;51.716;7.016;2023-07-31T21:41:12;2.13;;;1.30;;
71753;SDS011;59593;51.716;7.016;2023-07-31T21:43:38;1.58;;;1.33;;
71753;SDS011;59593;51.716;7.016;2023-07-31T21:46:18;1.35;;;1.20;;
71753;SDS011;59593;51.716;7.016;2023-07-31T21:48:51;2.33;;;1.25;;
71753;SDS011;59593;51.716;7.016;2023-07-31T21:51:19;2.78;;;1.10;;
71753;SDS011;59593;51.716;7.016;2023-07-31T21:54:00;3.70;;;1.25;;
71753;SDS011;59593;51.716;7.016;2023-07-31T21:56:52;2.75;;;1.30;;
71753;SDS011;59593;51.716;7.016;2023-07-31T21:59:36;2.85;;;1.20;;
71753;SDS011;59593;51.716;7.016;2023-07-31T22:02:06;2.90;;;1.13;;
71753;SDS011;59593;51.716;7.016;2023-07-31T22:04:44;2.80;;;1.15;;
71753;SDS011;59593;51.716;7.016;2023-07-31T22:07:16;1.60;;;1.50;;
71753;SDS011;59593;51.716;7.016;2023-07-31T22:09:44;2.50;;;1.25;;
71753;SDS011;59593;51.716;7.016;2023-07-31T22:12:15;1.52;;;1.15;;
71753;SDS011;59593;51.716;7.016;2023-07-31T22:14:48;2.60;;;1.10;;
71753;SDS011;59593;51.716;7.016;2023-07-31T22:17:17;1.30;;;1.10;;
71753;SDS011;59593;51.716;7.016;2023-07-31T22:19:42;3.28;;;1.20;;
71753;SDS011;59593;51.716;7.016;2023-07-31T22:22:11;2.85;;;1.60;;
71753;SDS011;59593;51.716;7.016;2023-07-31T22:24:40;4.03;;;1.60;;
71753;SDS011;59593;51.716;7.016;2023-07-31T22:27:06;7.05;;;1.58;;
71753;SDS011;59593;51.716;7.016;2023-07-31T22:29:34;2.55;;;1.10;;
71753;SDS011;59593;51.716;7.016;2023-07-31T22:32:00;1.92;;;1.42;;
71753;SDS011;59593;51.716;7.016;2023-07-31T22:34:28;1.80;;;1.20;;
71753;SDS011;59593;51.716;7.016;2023-07-31T22:36:53;1.95;;;1.30;;
71753;SDS011;59593;51.716;7.016;2023-07-31T22:39:19;3.28;;;1.40;;
71753;SDS011;59593;51.716;7.016;2023-07-31T22:41:48;1.60;;;1.30;;
71753;SDS011;59593;51.716;7.016;2023-07-31T22:44:13;1.67;;;1.38;;
71753;SDS011;59593;51.716;7.016;2023-07-31T22:46:42;1.67;;;1.50;;
71753;SDS011;59593;51.716;7.016;2023-07-31T22:49:08;2.00;;;1.40;;
71753;SDS011;59593;51.716;7.016;2023-07-31T22:51:33;1.83;;;1.50;;
71753;SDS011;59593;51.716;7.016;2023-07-31T22:53:59;3.33;;;1.27;;
71753;SDS011;59593;51.716;7.016;2023-07-31T22:56:34;1.85;;;1.40;;
71753;SDS011;59593;51.716;7.016;2023-07-31T22:59:04;1.45;;;1.20;;
71753;SDS011;59593;51.716;7.016;2023-07-31T23:01:30;2.55;;;1.35;;
